sensor_id;sensor_type;location;lat;lon;timestamp;pressure;altitude;pressure_sealevel;temperature;humidity
45345;BME280;31078;48.304;11.896;2023-05-24T00:01:30;96398.38;;;14.30;83.65
45345;BME280;31078;48.304;11.896;2023-05-24T00:03:57;96397.56;;;14.29;83.98
45345;BME280;31078;48.304;11.896;2023-05-24T00:06:25;96397.81;;;14.36;83.48
45345;BME280;31078;48.304;11.896;2023-05-24T00:08:53;96393.00;;;14.33;83.14
45345;BME280;31078;48.304;11.896;2023-05-24T00:11:20;96393.44;;;14.11;82.26
45345;BME280;31078;48.304;11.896;2023-05-24T00:13:47;96404.69;;;13.85;84.00
45345;BME280;31078;48.304;11.896;2023-05-24T00:16:14;96408.03;;;13.70;85.21
45345;BME280;31078;48.304;11.896;2023-05-24T00:18:40;96395.47;;;13.90;84.54
45345;BME280;31078;48.304;11.896;2023-05-24T00:21:11;96407.50;;;13.76;84.21
45345;BME280;31078;48.304;11.896;2023-05-24T00:23:37;96406.47;;;13.48;85.99
45345;BME280;31078;48.304;11.896;2023-05-24T00:26:05;96403.16;;;13.21;87.51
45345;BME280;31078;48.304;11.896;2023-05-24T00:28:32;96405.78;;;13.09;88.39
45345;BME280;31078;48.304;11.896;2023-05-24T00:30:59;96402.25;;;13.09;88.75
45345;BME280;31078;48.304;11.896;2023-05-24T00:33:25;96397.13;;;13.07;89.64
45345;BME280;31078;48.304;11.896;2023-05-24T00:35:53;96397.13;;;13.07;89.39
45345;BME280;31078;48.304;11.896;2023-05-24T00:38:21;96399.50;;;13.09;89.42
45345;BME280;31078;48.304;11.896;2023-05-24T00:40:47;96401.97;;;13.01;90.07
45345;BME280;31078;48.304;11.896;2023-05-24T00:43:15;96392.69;;;13.23;88.87
45345;BME280;31078;48.304;11.896;2023-05-24T00:45:42;96393.22;;;13.38;88.46
45345;BME280;31078;48.304;11.896;2023-05-24T00:48:08;96388.88;;;13.37;87.54
45345;BME280;31078;48.304;11.896;2023-05-24T00:50:36;96392.38;;;13.16;88.51
45345;BME280;31078;48.304;11.896;2023-05-24T00:53:05;96390.44;;;13.17;88.86
45345;BME280;31078;48.304;11.896;2023-05-24T00:55:33;96389.09;;;13.31;88.43
45345;BME280;31078;48.304;11.896;2023-05-24T00:58:01;96388.34;;;13.43;88.08
45345;BME280;31078;48.304;11.896;2023-05-24T01:00:29;96390.44;;;13.58;87.29
45345;BME280;31078;48.304;11.896;2023-05-24T01:02:55;96389.91;;;13.65;86.58
45345;BME280;31078;48.304;11.896;2023-05-24T01:05:22;96381.06;;;13.80;86.31
45345;BME280;31078;48.304;11.896;2023-05-24T01:07:53;96379.91;;;13.81;85.65
45345;BME280;31078;48.304;11.896;2023-05-24T01:10:31;96387.09;;;13.74;85.18
45345;BME280;31078;48.304;11.896;2023-05-24T01:13:03;96382.66;;;13.81;85.15
45345;BME280;31078;48.304;11.896;2023-05-24T01:15:41;96381.84;;;13.81;85.31
45345;BME280;31078;48.304;11.896;2023-05-24T01:18:13;96379.47;;;13.79;85.03
45345;BME280;31078;48.304;11.896;2023-05-24T01:20:41;96385.09;;;13.62;85.95
45345;BME280;31078;48.304;11.896;2023-05-24T01:23:30;96379.13;;;13.48;87.24
45345;BME280;31078;48.304;11.896;2023-05-24T01:26:16;96384.13;;;13.46;87.05
45345;BME280;31078;48.304;11.896;2023-05-24T01:28:46;96369.53;;;13.42;87.47
45345;BME280;31078;48.304;11.896;2023-05-24T01:31:14;96376.84;;;13.50;86.52
45345;BME280;31078;48.304;11.896;2023-05-24T01:33:41;96375.25;;;13.49;86.04
45345;BME280;31078;48.304;11.896;2023-05-24T01:36:08;96375.00;;;13.42;88.17
45345;BME280;31078;48.304;11.896;2023-05-24T01:38:35;96377.53;;;13.47;87.26
45345;BME280;31078;48.304;11.896;2023-05-24T01:41:16;96385.59;;;13.43;87.16
45345;BME280;31078;48.304;11.896;2023-05-24T01:43:47;96383.25;;;13.54;86.28
45345;BME280;31078;48.304;11.896;2023-05-24T01:46:21;96383.00;;;13.47;87.17
45345;BME280;31078;48.304;11.896;2023-05-24T01:48:56;96378.44;;;13.51;86.99
45345;BME280;31078;48.304;11.896;2023-05-24T01:51:28;96378.03;;;13.61;86.16
45345;BME280;31078;48.304;11.896;2023-05-24T01:53:56;96388.78;;;13.45;86.37
45345;BME280;31078;48.304;11.896;2023-05-24T01:56:25;96379.13;;;13.48;86.47
45345;BME280;31078;48.304;11.896;2023-05-24T01:58:54;96380.50;;;13.54;86.34
45345;BME280;31078;48.304;11.896;2023-05-24T02:01:22;96382.06;;;13.43;87.21
45345;BME280;31078;48.304;11.896;2023-05-24T02:03:49;96384.47;;;13.23;88.40
45345;BME280;31078;48.304;11.896;2023-05-24T02:06:15;96377.78;;;13.12;89.48
45345;BME280;31078;48.304;11.896;2023-05-24T02:08:42;96383.91;;;13.09;89.81
45345;BME280;31078;48.304;11.896;2023-05-24T02:11:08;96378.84;;;12.99;90.48
45345;BME280;31078;48.304;11.896;2023-05-24T02:13:35;96393.25;;;13.08;90.16
45345;BME280;31078;48.304;11.896;2023-05-24T02:16:03;96380.59;;;13.24;89.08
45345;BME280;31078;48.304;11.896;2023-05-24T02:18:30;96383.88;;;13.39;88.65
45345;BME280;31078;48.304;11.896;2023-05-24T02:20:58;96384.72;;;13.30;87.54
45345;BME280;31078;48.304;11.896;2023-05-24T02:23:25;96389.34;;;13.39;87.41
45345;BME280;31078;48.304;11.896;2023-05-24T02:25:51;96392.81;;;13.48;86.88
45345;BME280;31078;48.304;11.896;2023-05-24T02:28:18;96384.69;;;13.51;86.27
45345;BME280;31078;48.304;11.896;2023-05-24T02:30:45;96385.97;;;13.54;86.50
45345;BME280;31078;48.304;11.896;2023-05-24T02:33:13;96380.34;;;13.38;86.49
45345;BME280;31078;48.304;11.896;2023-05-24T02:35:39;96382.53;;;13.45;86.48
45345;BME280;31078;48.304;11.896;2023-05-24T02:38:06;96377.53;;;13.47;85.90
45345;BME280;31078;48.304;11.896;2023-05-24T02:40:33;96372.53;;;13.61;85.90
45345;BME280;31078;48.304;11.896;2023-05-24T02:43:00;96384.41;;;13.65;85.55
45345;BME280;31078;48.304;11.896;2023-05-24T02:45:26;96380.00;;;13.73;85.24
45345;BME280;31078;48.304;11.896;2023-05-24T02:47:53;96380.97;;;13.56;85.12
45345;BME280;31078;48.304;11.896;2023-05-24T02:50:21;96373.94;;;13.34;86.12
45345;BME280;31078;48.304;11.896;2023-05-24T02:52:47;96380.91;;;13.44;86.08
45345;BME280;31078;48.304;11.896;2023-05-24T02:55:14;96379.66;;;13.41;85.62
45345;BME280;31078;48.304;11.896;2023-05-24T02:57:40;96383.47;;;13.49;85.60
45345;BME280;31078;48.304;11.896;2023-05-24T03:00:07;96372.88;;;13.26;86.61
45345;BME280;31078;48.304;11.896;2023-05-24T03:02:35;96372.84;;;13.47;86.09
45345;BME280;31078;48.304;11.896;2023-05-24T03:05:05;96372.75;;;13.56;85.50
45345;BME280;31078;48.304;11.896;2023-05-24T03:07:34;96374.09;;;13.50;85.11
45345;BME280;31078;48.304;11.896;2023-05-24T03:10:00;96374.69;;;13.55;85.15
45345;BME280;31078;48.304;11.896;2023-05-24T03:12:27;96368.06;;;13.23;84.73
45345;BME280;31078;48.304;11.896;2023-05-24T03:14:53;96369.94;;;13.31;85.15
45345;BME280;31078;48.304;11.896;2023-05-24T03:17:20;96372.19;;;13.29;84.25
45345;BME280;31078;48.304;11.896;2023-05-24T03:19:46;96371.78;;;13.40;84.90
45345;BME280;31078;48.304;11.896;2023-05-24T03:22:12;96384.31;;;13.41;84.96
45345;BME280;31078;48.304;11.896;2023-05-24T03:24:40;96379.34;;;13.43;84.69
45345;BME280;31078;48.304;11.896;2023-05-24T03:27:07;96376.59;;;13.43;84.64
45345;BME280;31078;48.304;11.896;2023-05-24T03:29:33;96379.56;;;13.50;84.44
45345;BME280;31078;48.304;11.896;2023-05-24T03:32:00;96376.03;;;12.87;87.17
45345;BME280;31078;48.304;11.896;2023-05-24T03:34:26;96370.41;;;12.83;86.88
45345;BME280;31078;48.304;11.896;2023-05-24T03:36:54;96384.41;;;12.82;87.18
45345;BME280;31078;48.304;11.896;2023-05-24T03:39:20;96386.28;;;12.69;87.32
45345;BME280;31078;48.304;11.896;2023-05-24T03:41:48;96390.00;;;12.64;86.60
45345;BME280;31078;48.304;11.896;2023-05-24T03:44:15;96390.13;;;12.68;86.54
45345;BME280;31078;48.304;11.896;2023-05-24T03:46:41;96399.63;;;12.91;86.03
45345;BME280;31078;48.304;11.896;2023-05-24T03:49:08;96392.53;;;12.69;85.00
45345;BME280;31078;48.304;11.896;2023-05-24T03:51:34;96394.56;;;12.51;84.76
45345;BME280;31078;48.304;11.896;2023-05-24T03:54:01;96400.75;;;12.69;84.41
45345;BME280;31078;48.304;11.896;2023-05-24T03:56:27;96402.88;;;12.64;84.48
45345;BME280;31078;48.304;11.896;2023-05-24T03:58:55;96402.75;;;12.51;85.14
45345;BME280;31078;48.304;11.896;2023-05-24T04:01:24;96408.50;;;12.20;85.58
45345;BME280;31078;48.304;11.896;2023-05-24T04:03:51;96409.38;;;12.42;85.29
45345;BME280;31078;48.304;11.896;2023-05-24T04:06:20;96406.47;;;12.47;85.01
45345;BME280;31078;48.304;11.896;2023-05-24T04:08:52;96418.41;;;12.34;85.54
45345;BME280;31078;48.304;11.896;2023-05-24T04:11:19;96412.81;;;12.30;85.55
45345;BME280;31078;48.304;11.896;2023-05-24T04:13:46;96409.38;;;12.04;86.30
45345;BME280;31078;48.304;11.896;2023-05-24T04:16:14;96413.13;;;12.28;86.38
45345;BME280;31078;48.304;11.896;2023-05-24T04:18:41;96421.00;;;12.21;86.47
45345;BME280;31078;48.304;11.896;2023-05-24T04:21:07;96420.84;;;12.26;86.99
45345;BME280;31078;48.304;11.896;2023-05-24T04:23:34;96422.41;;;12.36;86.11
45345;BME280;31078;48.304;11.896;2023-05-24T04:26:00;96428.13;;;12.52;85.68
45345;BME280;31078;48.304;11.896;2023-05-24T04:28:27;96420.19;;;12.30;85.81
45345;BME280;31078;48.304;11.896;2023-05-24T04:30:53;96417.47;;;12.30;86.07
45345;BME280;31078;48.304;11.896;2023-05-24T04:33:23;96417.09;;;12.40;85.63
45345;BME280;31078;48.304;11.896;2023-05-24T04:35:49;96413.13;;;12.37;85.73
45345;BME280;31078;48.304;11.896;2023-05-24T04:38:16;96413.53;;;12.48;85.45
45345;BME280;31078;48.304;11.896;2023-05-24T04:40:44;96409.31;;;12.59;85.17
45345;BME280;31078;48.304;11.896;2023-05-24T04:43:11;96411.84;;;12.64;85.64
45345;BME280;31078;48.304;11.896;2023-05-24T04:45:37;96408.50;;;12.59;85.46
45345;BME280;31078;48.304;11.896;2023-05-24T04:48:04;96415.63;;;12.42;85.93
45345;BME280;31078;48.304;11.896;2023-05-24T04:50:32;96415.38;;;12.26;86.92
45345;BME280;31078;48.304;11.896;2023-05-24T04:52:59;96406.56;;;12.21;86.96
45345;BME280;31078;48.304;11.896;2023-05-24T04:55:26;96416.94;;;12.36;86.27
45345;BME280;31078;48.304;11.896;2023-05-24T04:57:53;96419.63;;;12.53;85.98
45345;BME280;31078;48.304;11.896;2023-05-24T05:00:20;96415.69;;;12.63;85.43
45345;BME280;31078;48.304;11.896;2023-05-24T05:02:47;96422.22;;;12.41;86.66
45345;BME280;31078;48.304;11.896;2023-05-24T05:05:13;96433.06;;;12.29;86.22
45345;BME280;31078;48.304;11.896;2023-05-24T05:07:41;96428.09;;;12.22;87.06
45345;BME280;31078;48.304;11.896;2023-05-24T05:10:08;96419.28;;;12.17;87.65
45345;BME280;31078;48.304;11.896;2023-05-24T05:12:34;96432.00;;;12.51;87.40
45345;BME280;31078;48.304;11.896;2023-05-24T05:15:01;96424.53;;;12.69;86.14
45345;BME280;31078;48.304;11.896;2023-05-24T05:17:27;96420.13;;;12.76;85.36
45345;BME280;31078;48.304;11.896;2023-05-24T05:19:54;96425.88;;;12.84;85.39
45345;BME280;31078;48.304;11.896;2023-05-24T05:22:20;96424.69;;;12.93;85.03
45345;BME280;31078;48.304;11.896;2023-05-24T05:24:48;96430.69;;;12.87;84.15
45345;BME280;31078;48.304;11.896;2023-05-24T05:27:14;96425.81;;;12.92;84.56
45345;BME280;31078;48.304;11.896;2023-05-24T05:29:41;96426.09;;;12.99;82.88
45345;BME280;31078;48.304;11.896;2023-05-24T05:32:08;96432.69;;;12.98;82.85
45345;BME280;31078;48.304;11.896;2023-05-24T05:34:34;96435.19;;;13.12;83.30
45345;BME280;31078;48.304;11.896;2023-05-24T05:37:01;96427.44;;;13.14;82.44
45345;BME280;31078;48.304;11.896;2023-05-24T05:39:27;96424.06;;;13.17;82.64
45345;BME280;31078;48.304;11.896;2023-05-24T05:41:57;96421.56;;;13.33;83.50
45345;BME280;31078;48.304;11.896;2023-05-24T05:44:23;96413.28;;;13.42;83.65
45345;BME280;31078;48.304;11.896;2023-05-24T05:46:50;96418.81;;;13.54;82.67
45345;BME280;31078;48.304;11.896;2023-05-24T05:49:16;96416.88;;;13.54;81.98
45345;BME280;31078;48.304;11.896;2023-05-24T05:51:43;96415.78;;;13.05;82.28
45345;BME280;31078;48.304;11.896;2023-05-24T05:54:10;96414.56;;;13.23;82.34
45345;BME280;31078;48.304;11.896;2023-05-24T05:56:41;96414.72;;;13.18;81.53
45345;BME280;31078;48.304;11.896;2023-05-24T05:59:11;96415.75;;;13.35;81.45
45345;BME280;31078;48.304;11.896;2023-05-24T06:01:37;96410.63;;;13.33;82.12
45345;BME280;31078;48.304;11.896;2023-05-24T06:04:04;96408.31;;;13.14;83.02
45345;BME280;31078;48.304;11.896;2023-05-24T06:06:30;96415.38;;;13.15;82.96
45345;BME280;31078;48.304;11.896;2023-05-24T06:08:57;96419.25;;;13.14;83.71
45345;BME280;31078;48.304;11.896;2023-05-24T06:11:24;96414.75;;;13.39;82.16
45345;BME280;31078;48.304;11.896;2023-05-24T06:13:51;96415.94;;;13.50;81.88
45345;BME280;31078;48.304;11.896;2023-05-24T06:16:19;96418.06;;;13.45;80.09
45345;BME280;31078;48.304;11.896;2023-05-24T06:18:46;96409.47;;;13.55;79.28
45345;BME280;31078;48.304;11.896;2023-05-24T06:21:13;96406.06;;;13.58;79.60
45345;BME280;31078;48.304;11.896;2023-05-24T06:23:40;96400.13;;;13.56;79.09
45345;BME280;31078;48.304;11.896;2023-05-24T06:26:07;96410.75;;;13.57;79.14
45345;BME280;31078;48.304;11.896;2023-05-24T06:28:34;96406.28;;;13.53;79.71
45345;BME280;31078;48.304;11.896;2023-05-24T06:31:01;96405.38;;;13.61;80.08
45345;BME280;31078;48.304;11.896;2023-05-24T06:33:29;96415.25;;;13.74;80.79
45345;BME280;31078;48.304;11.896;2023-05-24T06:35:56;96409.53;;;13.46;81.06
45345;BME280;31078;48.304;11.896;2023-05-24T06:38:23;96419.00;;;13.70;80.76
45345;BME280;31078;48.304;11.896;2023-05-24T06:40:50;96411.50;;;13.79;79.34
45345;BME280;31078;48.304;11.896;2023-05-24T06:43:16;96405.59;;;13.89;79.93
45345;BME280;31078;48.304;11.896;2023-05-24T06:45:45;96412.78;;;13.94;80.21
45345;BME280;31078;48.304;11.896;2023-05-24T06:48:11;96416.25;;;14.03;79.01
45345;BME280;31078;48.304;11.896;2023-05-24T06:50:39;96417.28;;;14.10;78.77
45345;BME280;31078;48.304;11.896;2023-05-24T06:53:06;96420.69;;;14.07;76.83
45345;BME280;31078;48.304;11.896;2023-05-24T06:55:33;96426.41;;;13.69;80.05
45345;BME280;31078;48.304;11.896;2023-05-24T06:57:59;96429.47;;;13.68;78.92
45345;BME280;31078;48.304;11.896;2023-05-24T07:00:26;96429.69;;;13.63;78.31
45345;BME280;31078;48.304;11.896;2023-05-24T07:02:53;96430.63;;;13.46;79.30
45345;BME280;31078;48.304;11.896;2023-05-24T07:05:19;96427.28;;;13.61;80.80
45345;BME280;31078;48.304;11.896;2023-05-24T07:07:47;96430.22;;;13.56;80.13
45345;BME280;31078;48.304;11.896;2023-05-24T07:10:14;96425.50;;;13.77;80.35
45345;BME280;31078;48.304;11.896;2023-05-24T07:12:40;96432.28;;;13.92;78.09
45345;BME280;31078;48.304;11.896;2023-05-24T07:15:08;96428.88;;;13.95;78.20
45345;BME280;31078;48.304;11.896;2023-05-24T07:17:34;96429.47;;;14.01;76.33
45345;BME280;31078;48.304;11.896;2023-05-24T07:20:01;96433.78;;;13.90;77.47
45345;BME280;31078;48.304;11.896;2023-05-24T07:22:31;96422.22;;;14.17;77.25
45345;BME280;31078;48.304;11.896;2023-05-24T07:24:58;96429.31;;;14.30;74.84
45345;BME280;31078;48.304;11.896;2023-05-24T07:27:25;96433.75;;;14.35;75.20
45345;BME280;31078;48.304;11.896;2023-05-24T07:29:52;96429.59;;;14.50;73.10
45345;BME280;31078;48.304;11.896;2023-05-24T07:32:18;96427.44;;;14.68;73.73
45345;BME280;31078;48.304;11.896;2023-05-24T07:34:45;96428.44;;;14.51;75.60
45345;BME280;31078;48.304;11.896;2023-05-24T07:37:11;96426.97;;;14.66;75.59
45345;BME280;31078;48.304;11.896;2023-05-24T07:39:38;96428.44;;;14.87;74.34
45345;BME280;31078;48.304;11.896;2023-05-24T07:42:06;96425.50;;;14.80;74.55
45345;BME280;31078;48.304;11.896;2023-05-24T07:44:33;96429.38;;;14.79;72.73
45345;BME280;31078;48.304;11.896;2023-05-24T07:46:59;96429.34;;;14.92;71.57
45345;BME280;31078;48.304;11.896;2023-05-24T07:49:26;96428.56;;;14.67;73.02
45345;BME280;31078;48.304;11.896;2023-05-24T07:51:53;96436.78;;;14.67;73.95
45345;BME280;31078;48.304;11.896;2023-05-24T07:54:22;96433.47;;;14.49;74.16
45345;BME280;31078;48.304;11.896;2023-05-24T07:56:48;96431.72;;;14.44;74.89
45345;BME280;31078;48.304;11.896;2023-05-24T07:59:16;96433.41;;;14.24;75.94
45345;BME280;31078;48.304;11.896;2023-05-24T08:01:43;96432.50;;;14.32;74.65
45345;BME280;31078;48.304;11.896;2023-05-24T08:04:09;96427.75;;;14.42;76.64
45345;BME280;31078;48.304;11.896;2023-05-24T08:06:36;96433.25;;;14.54;74.93
45345;BME280;31078;48.304;11.896;2023-05-24T08:09:03;96432.34;;;14.74;74.03
45345;BME280;31078;48.304;11.896;2023-05-24T08:11:31;96430.06;;;14.88;74.06
45345;BME280;31078;48.304;11.896;2023-05-24T08:13:58;96433.00;;;15.08;72.63
45345;BME280;31078;48.304;11.896;2023-05-24T08:16:26;96432.00;;;15.00;71.42
45345;BME280;31078;48.304;11.896;2023-05-24T08:18:52;96437.50;;;14.88;70.19
45345;BME280;31078;48.304;11.896;2023-05-24T08:21:19;96439.41;;;14.87;70.79
45345;BME280;31078;48.304;11.896;2023-05-24T08:23:46;96433.94;;;14.87;69.47
45345;BME280;31078;48.304;11.896;2023-05-24T08:26:13;96439.41;;;14.87;66.97
45345;BME280;31078;48.304;11.896;2023-05-24T08:28:43;96438.50;;;14.59;69.25
45345;BME280;31078;48.304;11.896;2023-05-24T08:31:09;96436.41;;;14.44;68.87
45345;BME280;31078;48.304;11.896;2023-05-24T08:33:37;96443.84;;;14.55;69.08
45345;BME280;31078;48.304;11.896;2023-05-24T08:36:04;96450.84;;;14.53;70.13
45345;BME280;31078;48.304;11.896;2023-05-24T08:38:31;96440.28;;;14.30;70.50
45345;BME280;31078;48.304;11.896;2023-05-24T08:40:57;96450.41;;;14.18;68.78
45345;BME280;31078;48.304;11.896;2023-05-24T08:43:25;96440.38;;;14.34;70.73
45345;BME280;31078;48.304;11.896;2023-05-24T08:45:53;96452.47;;;14.33;71.63
45345;BME280;31078;48.304;11.896;2023-05-24T08:48:21;96445.75;;;14.30;72.63
45345;BME280;31078;48.304;11.896;2023-05-24T08:50:50;96450.75;;;14.28;73.17
45345;BME280;31078;48.304;11.896;2023-05-24T08:53:17;96459.66;;;14.25;72.42
45345;BME280;31078;48.304;11.896;2023-05-24T08:55:44;96446.22;;;14.32;72.92
45345;BME280;31078;48.304;11.896;2023-05-24T08:58:11;96455.88;;;14.18;72.78
45345;BME280;31078;48.304;11.896;2023-05-24T09:00:38;96443.69;;;14.27;72.71
45345;BME280;31078;48.304;11.896;2023-05-24T09:03:05;96445.16;;;14.25;72.92
45345;BME280;31078;48.304;11.896;2023-05-24T09:05:32;96447.72;;;14.09;71.42
45345;BME280;31078;48.304;11.896;2023-05-24T09:08:00;96445.28;;;14.28;72.24
45345;BME280;31078;48.304;11.896;2023-05-24T09:10:28;96448.00;;;14.16;73.50
45345;BME280;31078;48.304;11.896;2023-05-24T09:13:00;96440.59;;;14.29;74.47
45345;BME280;31078;48.304;11.896;2023-05-24T09:15:27;96438.56;;;14.38;70.24
45345;BME280;31078;48.304;11.896;2023-05-24T09:17:54;96446.56;;;14.43;68.64
45345;BME280;31078;48.304;11.896;2023-05-24T09:20:20;96439.75;;;14.49;69.61
45345;BME280;31078;48.304;11.896;2023-05-24T09:22:50;96439.38;;;14.39;69.16
45345;BME280;31078;48.304;11.896;2023-05-24T09:25:19;96446.22;;;14.45;69.92
45345;BME280;31078;48.304;11.896;2023-05-24T09:27:49;96455.50;;;14.07;69.18
45345;BME280;31078;48.304;11.896;2023-05-24T09:30:15;96445.03;;;14.21;70.31
45345;BME280;31078;48.304;11.896;2023-05-24T09:32:53;96449.41;;;14.34;69.65
45345;BME280;31078;48.304;11.896;2023-05-24T09:35:20;96451.97;;;14.19;69.88
45345;BME280;31078;48.304;11.896;2023-05-24T09:37:47;96465.38;;;14.20;71.98
45345;BME280;31078;48.304;11.896;2023-05-24T09:40:18;96457.53;;;14.43;71.09
45345;BME280;31078;48.304;11.896;2023-05-24T09:42:45;96450.31;;;14.39;67.94
45345;BME280;31078;48.304;11.896;2023-05-24T09:45:11;96452.78;;;14.52;69.50
45345;BME280;31078;48.304;11.896;2023-05-24T09:47:39;96462.50;;;14.62;69.37
45345;BME280;31078;48.304;11.896;2023-05-24T09:50:11;96463.38;;;14.54;70.41
45345;BME280;31078;48.304;11.896;2023-05-24T09:52:39;96471.84;;;14.49;67.26
45345;BME280;31078;48.304;11.896;2023-05-24T09:55:12;96474.81;;;14.56;66.28
45345;BME280;31078;48.304;11.896;2023-05-24T09:57:42;96467.75;;;14.67;66.88
45345;BME280;31078;48.304;11.896;2023-05-24T10:00:10;96460.88;;;14.49;67.82
45345;BME280;31078;48.304;11.896;2023-05-24T10:02:41;96468.34;;;14.40;66.69
45345;BME280;31078;48.304;11.896;2023-05-24T10:05:09;96470.88;;;14.45;68.54
45345;BME280;31078;48.304;11.896;2023-05-24T10:07:36;96465.56;;;14.48;67.51
45345;BME280;31078;48.304;11.896;2023-05-24T10:10:04;96463.16;;;14.59;67.39
45345;BME280;31078;48.304;11.896;2023-05-24T10:12:32;96456.91;;;14.95;69.10
45345;BME280;31078;48.304;11.896;2023-05-24T10:15:01;96466.25;;;15.19;67.87
45345;BME280;31078;48.304;11.896;2023-05-24T10:17:28;96462.91;;;15.37;67.02
45345;BME280;31078;48.304;11.896;2023-05-24T10:19:55;96470.22;;;15.46;64.32
45345;BME280;31078;48.304;11.896;2023-05-24T10:22:22;96465.00;;;15.16;63.10
45345;BME280;31078;48.304;11.896;2023-05-24T10:24:52;96461.06;;;15.29;64.35
45345;BME280;31078;48.304;11.896;2023-05-24T10:27:24;96468.88;;;15.15;63.17
45345;BME280;31078;48.304;11.896;2023-05-24T10:29:58;96469.59;;;15.00;62.28
45345;BME280;31078;48.304;11.896;2023-05-24T10:32:28;96461.13;;;15.05;62.70
45345;BME280;31078;48.304;11.896;2023-05-24T10:34:57;96465.25;;;14.62;63.49
45345;BME280;31078;48.304;11.896;2023-05-24T10:37:24;96465.69;;;14.76;62.91
45345;BME280;31078;48.304;11.896;2023-05-24T10:39:51;96470.97;;;14.94;64.52
45345;BME280;31078;48.304;11.896;2023-05-24T10:42:18;96468.19;;;14.69;64.50
45345;BME280;31078;48.304;11.896;2023-05-24T10:44:45;96470.66;;;14.38;64.64
45345;BME280;31078;48.304;11.896;2023-05-24T10:47:13;96479.00;;;14.08;65.30
45345;BME280;31078;48.304;11.896;2023-05-24T10:49:48;96484.31;;;14.25;64.83
45345;BME280;31078;48.304;11.896;2023-05-24T10:52:17;96472.81;;;14.32;64.66
45345;BME280;31078;48.304;11.896;2023-05-24T10:55:08;96475.28;;;14.58;65.84
45345;BME280;31078;48.304;11.896;2023-05-24T10:57:36;96473.63;;;14.45;65.40
45345;BME280;31078;48.304;11.896;2023-05-24T11:00:27;96484.09;;;14.30;64.21
45345;BME280;31078;48.304;11.896;2023-05-24T11:02:58;96482.09;;;14.19;64.75
45345;BME280;31078;48.304;11.896;2023-05-24T11:05:33;96478.28;;;14.32;65.48
45345;BME280;31078;48.304;11.896;2023-05-24T11:07:59;96472.75;;;14.65;65.77
45345;BME280;31078;48.304;11.896;2023-05-24T11:10:29;96476.97;;;14.50;63.52
45345;BME280;31078;48.304;11.896;2023-05-24T11:12:56;96482.78;;;14.49;64.61
45345;BME280;31078;48.304;11.896;2023-05-24T11:15:23;96483.50;;;14.70;64.21
45345;BME280;31078;48.304;11.896;2023-05-24T11:18:14;96478.47;;;14.60;63.41
45345;BME280;31078;48.304;11.896;2023-05-24T11:20:43;96487.38;;;14.69;62.11
45345;BME280;31078;48.304;11.896;2023-05-24T11:23:11;96490.97;;;14.36;64.10
45345;BME280;31078;48.304;11.896;2023-05-24T11:25:39;96482.03;;;14.27;64.39
45345;BME280;31078;48.304;11.896;2023-05-24T11:28:06;96476.66;;;14.52;65.37
45345;BME280;31078;48.304;11.896;2023-05-24T11:30:38;96479.25;;;14.60;66.41
45345;BME280;31078;48.304;11.896;2023-05-24T11:33:04;96477.84;;;14.42;65.49
45345;BME280;31078;48.304;11.896;2023-05-24T11:35:31;96476.19;;;14.62;66.31
45345;BME280;31078;48.304;11.896;2023-05-24T11:37:59;96481.22;;;14.60;61.51
45345;BME280;31078;48.304;11.896;2023-05-24T11:40:25;96477.16;;;14.45;63.57
45345;BME280;31078;48.304;11.896;2023-05-24T11:42:52;96484.31;;;14.25;63.93
45345;BME280;31078;48.304;11.896;2023-05-24T11:45:20;96481.78;;;14.20;64.10
45345;BME280;31078;48.304;11.896;2023-05-24T11:47:47;96465.69;;;14.52;64.20
45345;BME280;31078;48.304;11.896;2023-05-24T11:50:14;96469.56;;;14.75;65.15
45345;BME280;31078;48.304;11.896;2023-05-24T11:52:44;96467.91;;;14.38;63.98
45345;BME280;31078;48.304;11.896;2023-05-24T11:55:12;96467.69;;;14.43;64.34
45345;BME280;31078;48.304;11.896;2023-05-24T11:57:44;96462.47;;;14.50;63.32
45345;BME280;31078;48.304;11.896;2023-05-24T12:00:23;96466.84;;;14.63;63.90
45345;BME280;31078;48.304;11.896;2023-05-24T12:02:49;96471.97;;;14.77;64.88
45345;BME280;31078;48.304;11.896;2023-05-24T12:05:17;96465.25;;;14.99;63.64
45345;BME280;31078;48.304;11.896;2023-05-24T12:07:44;96461.81;;;15.14;63.85
45345;BME280;31078;48.304;11.896;2023-05-24T12:10:14;96457.44;;;15.25;65.84
45345;BME280;31078;48.304;11.896;2023-05-24T12:12:44;96463.16;;;15.20;63.32
45345;BME280;31078;48.304;11.896;2023-05-24T12:15:10;96456.53;;;15.21;63.32
45345;BME280;31078;48.304;11.896;2023-05-24T12:17:39;96458.41;;;15.45;63.08
45345;BME280;31078;48.304;11.896;2023-05-24T12:20:08;96460.28;;;15.81;62.50
45345;BME280;31078;48.304;11.896;2023-05-24T12:22:36;96465.59;;;15.62;58.11
45345;BME280;31078;48.304;11.896;2023-05-24T12:25:03;96467.00;;;15.44;59.42
45345;BME280;31078;48.304;11.896;2023-05-24T12:27:31;96461.06;;;15.29;59.53
45345;BME280;31078;48.304;11.896;2023-05-24T12:30:05;96466.25;;;15.19;58.52
45345;BME280;31078;48.304;11.896;2023-05-24T12:32:34;96456.22;;;14.98;59.08
45345;BME280;31078;48.304;11.896;2023-05-24T12:35:02;96468.91;;;14.91;60.67
45345;BME280;31078;48.304;11.896;2023-05-24T12:37:30;96463.88;;;15.05;62.35
45345;BME280;31078;48.304;11.896;2023-05-24T12:39:59;96467.94;;;15.23;60.87
45345;BME280;31078;48.304;11.896;2023-05-24T12:42:25;96467.88;;;15.20;60.09
45345;BME280;31078;48.304;11.896;2023-05-24T12:44:53;96468.59;;;15.45;60.48
45345;BME280;31078;48.304;11.896;2023-05-24T12:47:20;96469.06;;;15.34;58.78
45345;BME280;31078;48.304;11.896;2023-05-24T12:49:46;96476.00;;;15.04;57.69
45345;BME280;31078;48.304;11.896;2023-05-24T12:52:13;96474.13;;;15.08;60.05
45345;BME280;31078;48.304;11.896;2023-05-24T12:54:39;96477.91;;;15.03;57.69